sensor_id;sensor_type;location;lat;lon;timestamp;P1;durP1;ratioP1;P2;durP2;ratioP2
36789;SDS011;22740;52.182;8.780;2023-03-14T00:02:30;3.83;;;1.17;;
36789;SDS011;22740;52.182;8.780;2023-03-14T00:08:32;3.58;;;1.15;;
36789;SDS011;22740;52.182;8.780;2023-03-14T00:14:34;5.70;;;1.08;;
36789;SDS011;22740;52.182;8.780;2023-03-14T00:20:36;3.33;;;1.25;;
36789;SDS011;22740;52.182;8.780;2023-03-14T00:26:38;5.80;;;1.20;;
36789;SDS011;22740;52.182;8.780;2023-03-14T00:32:40;4.55;;;0.90;;
36789;SDS011;22740;52.182;8.780;2023-03-14T00:38:43;4.93;;;1.08;;
36789;SDS011;22740;52.182;8.780;2023-03-14T00:44:45;9.07;;;1.60;;
36789;SDS011;22740;52.182;8.780;2023-03-14T00:50:49;4.57;;;1.05;;
36789;SDS011;22740;52.182;8.780;2023-03-14T00:56:50;6.97;;;1.48;;
36789;SDS011;22740;52.182;8.780;2023-03-14T01:02:52;6.57;;;1.55;;
36789;SDS011;22740;52.182;8.780;2023-03-14T01:08:55;4.78;;;1.10;;
36789;SDS011;22740;52.182;8.780;2023-03-14T01:14:57;2.05;;;0.90;;
36789;SDS011;22740;52.182;8.780;2023-03-14T01:21:08;4.97;;;1.00;;
36789;SDS011;22740;52.182;8.780;2023-03-14T01:27:12;8.52;;;1.27;;
36789;SDS011;22740;52.182;8.780;2023-03-14T01:33:14;4.50;;;1.15;;
36789;SDS011;22740;52.182;8.780;2023-03-14T01:39:16;4.65;;;1.10;;
36789;SDS011;22740;52.182;8.780;2023-03-14T01:58:11;5.27;;;1.20;;
36789;SDS011;22740;52.182;8.780;2023-03-14T02:04:13;6.25;;;1.17;;
36789;SDS011;22740;52.182;8.780;2023-03-14T02:10:19;6.18;;;1.25;;
36789;SDS011;22740;52.182;8.780;2023-03-14T02:16:24;5.68;;;1.40;;
36789;SDS011;22740;52.182;8.780;2023-03-14T02:22:26;4.47;;;0.80;;
36789;SDS011;22740;52.182;8.780;2023-03-14T02:28:28;9.05;;;1.10;;
36789;SDS011;22740;52.182;8.780;2023-03-14T02:34:29;5.78;;;1.25;;
36789;SDS011;22740;52.182;8.780;2023-03-14T02:40:33;5.00;;;1.10;;
36789;SDS011;22740;52.182;8.780;2023-03-14T02:46:34;5.68;;;1.23;;
36789;SDS011;22740;52.182;8.780;2023-03-14T02:52:36;4.63;;;1.33;;
36789;SDS011;22740;52.182;8.780;2023-03-14T02:58:38;2.88;;;0.63;;
36789;SDS011;22740;52.182;8.780;2023-03-14T03:04:40;2.58;;;0.45;;
36789;SDS011;22740;52.182;8.780;2023-03-14T03:10:42;3.30;;;0.60;;
36789;SDS011;22740;52.182;8.780;2023-03-14T03:16:44;2.75;;;0.52;;
36789;SDS011;22740;52.182;8.780;2023-03-14T03:22:47;3.70;;;0.45;;
36789;SDS011;22740;52.182;8.780;2023-03-14T03:28:51;4.50;;;0.68;;
36789;SDS011;22740;52.182;8.780;2023-03-14T03:34:53;3.30;;;0.85;;
36789;SDS011;22740;52.182;8.780;2023-03-14T03:40:55;4.20;;;0.60;;
36789;SDS011;22740;52.182;8.780;2023-03-14T03:46:56;2.88;;;0.63;;
36789;SDS011;22740;52.182;8.780;2023-03-14T03:52:58;3.55;;;0.70;;
36789;SDS011;22740;52.182;8.780;2023-03-14T03:59:00;4.60;;;0.60;;
36789;SDS011;22740;52.182;8.780;2023-03-14T04:05:02;2.30;;;0.60;;
36789;SDS011;22740;52.182;8.780;2023-03-14T04:11:05;1.98;;;0.57;;
36789;SDS011;22740;52.182;8.780;2023-03-14T04:17:08;7.22;;;0.88;;
36789;SDS011;22740;52.182;8.780;2023-03-14T04:23:14;3.78;;;0.80;;
36789;SDS011;22740;52.182;8.780;2023-03-14T04:29:15;7.88;;;0.90;;
36789;SDS011;22740;52.182;8.780;2023-03-14T04:35:17;2.65;;;0.85;;
36789;SDS011;22740;52.182;8.780;2023-03-14T04:47:24;3.58;;;0.80;;
36789;SDS011;22740;52.182;8.780;2023-03-14T04:53:26;6.13;;;1.08;;
36789;SDS011;22740;52.182;8.780;2023-03-14T04:59:28;4.78;;;1.17;;
36789;SDS011;22740;52.182;8.780;2023-03-14T05:05:30;9.23;;;1.38;;
36789;SDS011;22740;52.182;8.780;2023-03-14T05:11:32;5.97;;;1.20;;
36789;SDS011;22740;52.182;8.780;2023-03-14T05:17:34;4.10;;;0.98;;
36789;SDS011;22740;52.182;8.780;2023-03-14T05:23:36;6.47;;;1.63;;
36789;SDS011;22740;52.182;8.780;2023-03-14T05:29:38;8.15;;;1.33;;
36789;SDS011;22740;52.182;8.780;2023-03-14T05:35:41;7.18;;;1.00;;
36789;SDS011;22740;52.182;8.780;2023-03-14T05:41:43;12.05;;;1.23;;
36789;SDS011;22740;52.182;8.780;2023-03-14T05:47:45;4.80;;;0.90;;
36789;SDS011;22740;52.182;8.780;2023-03-14T05:53:47;6.53;;;1.10;;
36789;SDS011;22740;52.182;8.780;2023-03-14T05:59:48;6.53;;;1.20;;
36789;SDS011;22740;52.182;8.780;2023-03-14T06:05:51;4.30;;;0.93;;
36789;SDS011;22740;52.182;8.780;2023-03-14T06:11:53;2.92;;;0.50;;
36789;SDS011;22740;52.182;8.780;2023-03-14T06:17:55;3.88;;;0.90;;
36789;SDS011;22740;52.182;8.780;2023-03-14T06:23:57;2.72;;;0.65;;
36789;SDS011;22740;52.182;8.780;2023-03-14T06:29:59;1.63;;;0.50;;
36789;SDS011;22740;52.182;8.780;2023-03-14T06:36:01;2.63;;;0.65;;
36789;SDS011;22740;52.182;8.780;2023-03-14T06:42:03;4.45;;;1.27;;
36789;SDS011;22740;52.182;8.780;2023-03-14T06:48:06;1.75;;;0.60;;
36789;SDS011;22740;52.182;8.780;2023-03-14T06:54:08;1.23;;;0.52;;
36789;SDS011;22740;52.182;8.780;2023-03-14T07:00:12;1.70;;;0.55;;
36789;SDS011;22740;52.182;8.780;2023-03-14T07:06:15;2.42;;;0.60;;
36789;SDS011;22740;52.182;8.780;2023-03-14T07:12:17;3.25;;;0.60;;
36789;SDS011;22740;52.182;8.780;2023-03-14T07:18:19;2.65;;;0.43;;
36789;SDS011;22740;52.182;8.780;2023-03-14T07:24:21;0.80;;;0.30;;
36789;SDS011;22740;52.182;8.780;2023-03-14T07:30:24;3.08;;;0.50;;
36789;SDS011;22740;52.182;8.780;2023-03-14T07:36:26;3.03;;;0.45;;
36789;SDS011;22740;52.182;8.780;2023-03-14T07:42:28;2.00;;;0.40;;
36789;SDS011;22740;52.182;8.780;2023-03-14T07:48:30;2.58;;;1.05;;
36789;SDS011;22740;52.182;8.780;2023-03-14T07:54:32;3.38;;;0.50;;
36789;SDS011;22740;52.182;8.780;2023-03-14T08:00:34;2.72;;;0.98;;
36789;SDS011;22740;52.182;8.780;2023-03-14T08:06:36;2.45;;;1.10;;
36789;SDS011;22740;52.182;8.780;2023-03-14T08:12:39;4.57;;;1.33;;
36789;SDS011;22740;52.182;8.780;2023-03-14T08:18:41;3.55;;;1.35;;
36789;SDS011;22740;52.182;8.780;2023-03-14T08:24:43;3.28;;;1.25;;
36789;SDS011;22740;52.182;8.780;2023-03-14T08:30:45;1.75;;;0.95;;
36789;SDS011;22740;52.182;8.780;2023-03-14T08:36:48;4.78;;;1.23;;
36789;SDS011;22740;52.182;8.780;2023-03-14T08:42:50;3.42;;;1.30;;
36789;SDS011;22740;52.182;8.780;2023-03-14T08:48:52;3.25;;;2.00;;
36789;SDS011;22740;52.182;8.780;2023-03-14T08:54:54;2.92;;;1.40;;
36789;SDS011;22740;52.182;8.780;2023-03-14T09:00:57;4.55;;;1.90;;
36789;SDS011;22740;52.182;8.780;2023-03-14T09:06:59;3.35;;;1.63;;
36789;SDS011;22740;52.182;8.780;2023-03-14T09:13:04;7.22;;;2.17;;
36789;SDS011;22740;52.182;8.780;2023-03-14T09:19:05;3.90;;;1.83;;
36789;SDS011;22740;52.182;8.780;2023-03-14T09:25:07;4.60;;;1.80;;
36789;SDS011;22740;52.182;8.780;2023-03-14T09:31:11;3.45;;;2.03;;
36789;SDS011;22740;52.182;8.780;2023-03-14T09:37:13;3.30;;;1.92;;
36789;SDS011;22740;52.182;8.780;2023-03-14T09:43:18;3.00;;;2.30;;
36789;SDS011;22740;52.182;8.780;2023-03-14T09:49:25;4.97;;;2.58;;
36789;SDS011;22740;52.182;8.780;2023-03-14T09:55:30;5.50;;;2.80;;
36789;SDS011;22740;52.182;8.780;2023-03-14T10:01:40;3.35;;;2.42;;
36789;SDS011;22740;52.182;8.780;2023-03-14T10:07:42;4.35;;;3.08;;
36789;SDS011;22740;52.182;8.780;2023-03-14T10:14:17;4.25;;;2.80;;
36789;SDS011;22740;52.182;8.780;2023-03-14T10:26:42;4.55;;;3.13;;
36789;SDS011;22740;52.182;8.780;2023-03-14T10:32:45;5.00;;;3.33;;
36789;SDS011;22740;52.182;8.780;2023-03-14T10:38:47;3.03;;;0.85;;
36789;SDS011;22740;52.182;8.780;2023-03-14T10:44:51;1.48;;;0.50;;
36789;SDS011;22740;52.182;8.780;2023-03-14T10:51:07;1.45;;;0.32;;
36789;SDS011;22740;52.182;8.780;2023-03-14T10:57:11;1.95;;;0.43;;
36789;SDS011;22740;52.182;8.780;2023-03-14T11:03:13;0.28;;;0.20;;
36789;SDS011;22740;52.182;8.780;2023-03-14T11:09:33;1.52;;;0.40;;
36789;SDS011;22740;52.182;8.780;2023-03-14T11:22:04;2.28;;;0.73;;
36789;SDS011;22740;52.182;8.780;2023-03-14T11:34:36;1.02;;;0.28;;
36789;SDS011;22740;52.182;8.780;2023-03-14T11:40:51;0.30;;;0.20;;
36789;SDS011;22740;52.182;8.780;2023-03-14T11:46:57;1.13;;;0.40;;
36789;SDS011;22740;52.182;8.780;2023-03-14T11:53:09;1.83;;;0.50;;
36789;SDS011;22740;52.182;8.780;2023-03-14T11:59:19;2.85;;;0.55;;
36789;SDS011;22740;52.182;8.780;2023-03-14T12:17:58;4.35;;;1.38;;
36789;SDS011;22740;52.182;8.780;2023-03-14T12:23:59;6.20;;;1.15;;
36789;SDS011;22740;52.182;8.780;2023-03-14T12:30:01;4.30;;;1.10;;
36789;SDS011;22740;52.182;8.780;2023-03-14T12:43:00;6.47;;;1.40;;
36789;SDS011;22740;52.182;8.780;2023-03-14T12:49:04;8.55;;;2.60;;
36789;SDS011;22740;52.182;8.780;2023-03-14T12:55:29;6.65;;;1.80;;
36789;SDS011;22740;52.182;8.780;2023-03-14T13:02:02;8.80;;;1.50;;
36789;SDS011;22740;52.182;8.780;2023-03-14T13:08:08;9.30;;;1.23;;
36789;SDS011;22740;52.182;8.780;2023-03-14T13:14:10;9.02;;;1.67;;
36789;SDS011;22740;52.182;8.780;2023-03-14T13:20:14;6.03;;;1.17;;
36789;SDS011;22740;52.182;8.780;2023-03-14T13:26:41;5.72;;;1.00;;
36789;SDS011;22740;52.182;8.780;2023-03-14T13:32:44;8.77;;;1.50;;
36789;SDS011;22740;52.182;8.780;2023-03-14T13:44:57;6.15;;;1.33;;
36789;SDS011;22740;52.182;8.780;2023-03-14T13:51:03;6.43;;;1.10;;
36789;SDS011;22740;52.182;8.780;2023-03-14T13:57:07;9.82;;;1.42;;
36789;SDS011;22740;52.182;8.780;2023-03-14T14:03:10;13.35;;;1.67;;
36789;SDS011;22740;52.182;8.780;2023-03-14T14:09:35;16.67;;;2.87;;
36789;SDS011;22740;52.182;8.780;2023-03-14T14:15:45;7.38;;;1.55;;
36789;SDS011;22740;52.182;8.780;2023-03-14T14:21:49;14.70;;;3.15;;
36789;SDS011;22740;52.182;8.780;2023-03-14T14:27:52;12.23;;;1.25;;
36789;SDS011;22740;52.182;8.780;2023-03-14T14:33:55;15.93;;;2.13;;
36789;SDS011;22740;52.182;8.780;2023-03-14T14:39:59;12.88;;;1.55;;
36789;SDS011;22740;52.182;8.780;2023-03-14T14:46:18;8.82;;;1.35;;
36789;SDS011;22740;52.182;8.780;2023-03-14T14:58:47;7.00;;;1.20;;
36789;SDS011;22740;52.182;8.780;2023-03-14T15:04:50;11.55;;;1.73;;
36789;SDS011;22740;52.182;8.780;2023-03-14T15:10:51;10.20;;;1.17;;
36789;SDS011;22740;52.182;8.780;2023-03-14T15:16:53;7.82;;;0.90;;
36789;SDS011;22740;52.182;8.780;2023-03-14T15:22:56;12.52;;;1.60;;
36789;SDS011;22740;52.182;8.780;2023-03-14T15:28:58;10.68;;;1.55;;
36789;SDS011;22740;52.182;8.780;2023-03-14T15:35:00;9.73;;;1.10;;
36789;SDS011;22740;52.182;8.780;2023-03-14T15:41:02;14.02;;;1.45;;
36789;SDS011;22740;52.182;8.780;2023-03-14T15:47:05;7.55;;;1.10;;
36789;SDS011;22740;52.182;8.780;2023-03-14T15:53:07;16.27;;;1.70;;
36789;SDS011;22740;52.182;8.780;2023-03-14T15:59:09;12.82;;;2.40;;
36789;SDS011;22740;52.182;8.780;2023-03-14T16:05:11;7.25;;;1.10;;
36789;SDS011;22740;52.182;8.780;2023-03-14T16:11:15;6.38;;;1.30;;
36789;SDS011;22740;52.182;8.780;2023-03-14T16:17:21;7.20;;;1.20;;
36789;SDS011;22740;52.182;8.780;2023-03-14T16:23:23;17.52;;;2.55;;
36789;SDS011;22740;52.182;8.780;2023-03-14T16:29:26;12.48;;;1.92;;
36789;SDS011;22740;52.182;8.780;2023-03-14T16:35:28;9.75;;;1.35;;
36789;SDS011;22740;52.182;8.780;2023-03-14T16:41:29;9.40;;;1.27;;
36789;SDS011;22740;52.182;8.780;2023-03-14T16:47:32;14.10;;;4.18;;
36789;SDS011;22740;52.182;8.780;2023-03-14T16:53:34;11.57;;;1.70;;
36789;SDS011;22740;52.182;8.780;2023-03-14T16:59:36;8.30;;;1.33;;
36789;SDS011;22740;52.182;8.780;2023-03-14T17:05:43;8.50;;;1.20;;
36789;SDS011;22740;52.182;8.780;2023-03-14T17:11:50;7.50;;;1.38;;
36789;SDS011;22740;52.182;8.780;2023-03-14T17:17:52;8.35;;;1.48;;
36789;SDS011;22740;52.182;8.780;2023-03-14T17:23:54;5.53;;;0.73;;
36789;SDS011;22740;52.182;8.780;2023-03-14T17:29:56;3.47;;;0.90;;
36789;SDS011;22740;52.182;8.780;2023-03-14T17:35:58;4.00;;;0.95;;
36789;SDS011;22740;52.182;8.780;2023-03-14T17:42:00;4.32;;;1.08;;
36789;SDS011;22740;52.182;8.780;2023-03-14T17:48:02;6.80;;;1.40;;
36789;SDS011;22740;52.182;8.780;2023-03-14T17:54:04;10.13;;;1.35;;
36789;SDS011;22740;52.182;8.780;2023-03-14T18:00:06;7.07;;;1.00;;
36789;SDS011;22740;52.182;8.780;2023-03-14T18:06:12;7.13;;;1.42;;
36789;SDS011;22740;52.182;8.780;2023-03-14T18:12:17;8.73;;;0.90;;
36789;SDS011;22740;52.182;8.780;2023-03-14T18:18:19;5.07;;;1.00;;
36789;SDS011;22740;52.182;8.780;2023-03-14T18:24:21;5.63;;;1.20;;
36789;SDS011;22740;52.182;8.780;2023-03-14T18:30:23;6.10;;;1.17;;
36789;SDS011;22740;52.182;8.780;2023-03-14T18:36:25;7.68;;;1.40;;
36789;SDS011;22740;52.182;8.780;2023-03-14T18:42:27;7.68;;;1.92;;
36789;SDS011;22740;52.182;8.780;2023-03-14T18:48:29;10.23;;;1.20;;
36789;SDS011;22740;52.182;8.780;2023-03-14T18:54:31;8.43;;;1.10;;
36789;SDS011;22740;52.182;8.780;2023-03-14T19:00:34;8.75;;;1.17;;
36789;SDS011;22740;52.182;8.780;2023-03-14T19:06:37;8.97;;;1.50;;
36789;SDS011;22740;52.182;8.780;2023-03-14T19:12:40;8.73;;;1.98;;
36789;SDS011;22740;52.182;8.780;2023-03-14T19:18:42;10.50;;;2.72;;
36789;SDS011;22740;52.182;8.780;2023-03-14T19:24:44;9.02;;;1.67;;
36789;SDS011;22740;52.182;8.780;2023-03-14T19:30:46;10.35;;;2.13;;
36789;SDS011;22740;52.182;8.780;2023-03-14T19:36:48;9.80;;;2.30;;
36789;SDS011;22740;52.182;8.780;2023-03-14T19:42:54;10.90;;;1.92;;
36789;SDS011;22740;52.182;8.780;2023-03-14T19:48:56;9.73;;;1.33;;
36789;SDS011;22740;52.182;8.780;2023-03-14T19:54:58;8.15;;;1.60;;
36789;SDS011;22740;52.182;8.780;2023-03-14T20:01:02;5.68;;;1.27;;
36789;SDS011;22740;52.182;8.780;2023-03-14T20:07:04;9.48;;;1.77;;
36789;SDS011;22740;52.182;8.780;2023-03-14T20:13:05;10.70;;;1.70;;
36789;SDS011;22740;52.182;8.780;2023-03-14T20:19:21;13.93;;;1.95;;
36789;SDS011;22740;52.182;8.780;2023-03-14T20:25:23;11.13;;;1.58;;
36789;SDS011;22740;52.182;8.780;2023-03-14T20:31:27;11.38;;;1.30;;
36789;SDS011;22740;52.182;8.780;2023-03-14T20:37:29;11.73;;;2.05;;
36789;SDS011;22740;52.182;8.780;2023-03-14T20:43:32;8.25;;;1.65;;
36789;SDS011;22740;52.182;8.780;2023-03-14T20:49:34;8.68;;;1.65;;
36789;SDS011;22740;52.182;8.780;2023-03-14T20:55:36;5.82;;;1.10;;
36789;SDS011;22740;52.182;8.780;2023-03-14T21:01:40;8.70;;;2.03;;
36789;SDS011;22740;52.182;8.780;2023-03-14T21:07:43;8.45;;;1.30;;
36789;SDS011;22740;52.182;8.780;2023-03-14T21:13:45;10.93;;;1.45;;
36789;SDS011;22740;52.182;8.780;2023-03-14T21:19:47;7.20;;;1.33;;
36789;SDS011;22740;52.182;8.780;2023-03-14T21:25:49;9.93;;;1.80;;
36789;SDS011;22740;52.182;8.780;2023-03-14T21:31:50;14.07;;;1.95;;
36789;SDS011;22740;52.182;8.780;2023-03-14T21:37:52;9.40;;;1.58;;
36789;SDS011;22740;52.182;8.780;2023-03-14T21:43:54;9.45;;;1.63;;
36789;SDS011;22740;52.182;8.780;2023-03-14T21:49:56;6.95;;;1.33;;
36789;SDS011;22740;52.182;8.780;2023-03-14T21:55:58;7.45;;;1.40;;
36789;SDS011;22740;52.182;8.780;2023-03-14T22:02:04;7.68;;;1.50;;
36789;SDS011;22740;52.182;8.780;2023-03-14T22:08:07;15.05;;;1.35;;
36789;SDS011;22740;52.182;8.780;2023-03-14T22:14:09;8.70;;;1.42;;
36789;SDS011;22740;52.182;8.780;2023-03-14T22:20:11;6.85;;;1.30;;
36789;SDS011;22740;52.182;8.780;2023-03-14T22:26:14;6.22;;;1.60;;
36789;SDS011;22740;52.182;8.780;2023-03-14T22:32:17;9.02;;;1.50;;
36789;SDS011;22740;52.182;8.780;2023-03-14T22:38:19;7.45;;;1.55;;
36789;SDS011;22740;52.182;8.780;2023-03-14T22:44:21;10.52;;;1.60;;
36789;SDS011;22740;52.182;8.780;2023-03-14T22:50:23;8.65;;;1.52;;
36789;SDS011;22740;52.182;8.780;2023-03-14T22:56:25;12.00;;;1.50;;
36789;SDS011;22740;52.182;8.780;2023-03-14T23:02:27;10.15;;;1.52;;
36789;SDS011;22740;52.182;8.780;2023-03-14T23:08:29;11.32;;;1.73;;
36789;SDS011;22740;52.182;8.780;2023-03-14T23:20:35;13.75;;;1.70;;
36789;SDS011;22740;52.182;8.780;2023-03-14T23:26:37;9.43;;;1.85;;
36789;SDS011;22740;52.182;8.780;2023-03-14T23:32:39;12.18;;;1.80;;
36789;SDS011;22740;52.182;8.780;2023-03-14T23:38:43;9.18;;;1.40;;
36789;SDS011;22740;52.182;8.780;2023-03-14T23:44:46;6.10;;;2.03;;
36789;SDS011;22740;52.182;8.780;2023-03-14T23:50:48;6.95;;;1.58;;
36789;SDS011;22740;52.182;8.780;2023-03-14T23:56:57;11.15;;;1.67;;
